createdAt,value
2017-10-01T00:01:22.727Z,4.13
2017-10-01T00:03:49.049Z,4.27
2017-10-01T00:06:15.290Z,4.03
2017-10-01T00:08:41.577Z,4.70
2017-10-01T00:11:08.906Z,4.47
2017-10-01T00:16:28.455Z,4.63
2017-10-01T00:18:54.708Z,4.20
2017-10-01T00:21:21.750Z,4.70
2017-10-01T00:23:49.194Z,4.30
2017-10-01T00:26:16.135Z,4.30
2017-10-01T00:28:42.414Z,4.60
2017-10-01T00:31:09.145Z,4.67
2017-10-01T00:33:35.454Z,4.20
2017-10-01T00:36:02.440Z,4.40
2017-10-01T00:38:29.159Z,5.10
2017-10-01T00:40:55.480Z,5.57
2017-10-01T00:43:21.745Z,5.37
2017-10-01T00:45:48.051Z,4.90
2017-10-01T00:48:15.247Z,4.93
2017-10-01T00:50:41.576Z,4.60
2017-10-01T00:53:08.230Z,4.20
2017-10-01T00:55:34.572Z,4.87
2017-10-01T00:58:01.628Z,5.40
2017-10-01T01:00:29.067Z,4.47
2017-10-01T01:02:55.371Z,5.17
2017-10-01T01:05:21.618Z,5.03
2017-10-01T01:07:47.973Z,4.53
2017-10-01T01:10:15.025Z,4.77
2017-10-01T01:12:42.074Z,4.70
2017-10-01T01:15:09.141Z,4.60
2017-10-01T01:17:35.394Z,5.07
2017-10-01T01:20:01.718Z,5.17
2017-10-01T01:22:28.396Z,5.33
2017-10-01T01:24:54.664Z,5.20
2017-10-01T01:27:21.001Z,5.20
2017-10-01T01:29:47.398Z,4.93
2017-10-01T01:32:13.758Z,5.30
2017-10-01T01:34:40.052Z,5.13
2017-10-01T01:37:06.461Z,5.10
2017-10-01T01:39:32.790Z,4.80
2017-10-01T01:41:59.066Z,5.30
2017-10-01T01:44:26.129Z,5.07
2017-10-01T01:46:52.437Z,5.40
2017-10-01T01:49:19.449Z,6.00
2017-10-01T01:51:45.743Z,5.47
2017-10-01T01:54:12.042Z,5.50
2017-10-01T01:56:39.025Z,5.00
2017-10-01T01:59:05.565Z,5.30
2017-10-01T02:01:31.869Z,5.83
2017-10-01T02:03:58.998Z,5.13
2017-10-01T02:06:25.342Z,5.23
2017-10-01T02:08:52.441Z,5.00
2017-10-01T02:11:18.794Z,5.90
2017-10-01T02:13:45.439Z,4.97
2017-10-01T02:16:11.753Z,5.20
2017-10-01T02:18:38.020Z,5.30
2017-10-01T02:21:04.383Z,3.90
2017-10-01T02:23:30.705Z,4.93
2017-10-01T02:25:56.993Z,4.33
2017-10-01T02:28:23.318Z,4.10
2017-10-01T02:30:49.595Z,5.80
2017-10-01T02:33:15.852Z,3.80
2017-10-01T02:35:42.494Z,3.87
2017-10-01T02:38:08.828Z,4.33
2017-10-01T02:40:35.114Z,4.27
2017-10-01T02:43:01.819Z,4.20
2017-10-01T02:45:28.077Z,3.80
2017-10-01T02:47:55.104Z,4.70
2017-10-01T02:50:21.834Z,4.20
2017-10-01T02:52:48.170Z,3.60
2017-10-01T02:55:14.569Z,3.83
2017-10-01T02:57:42.233Z,4.33
2017-10-01T03:00:08.645Z,3.87
2017-10-01T03:02:35.017Z,3.60
2017-10-01T03:05:01.673Z,3.67
2017-10-01T03:07:28.050Z,3.83
2017-10-01T03:09:54.364Z,3.83
2017-10-01T03:12:21.065Z,3.10
2017-10-01T03:14:47.342Z,3.53
2017-10-01T03:17:13.703Z,3.30
2017-10-01T03:19:40.026Z,3.20
2017-10-01T03:22:06.342Z,3.60
2017-10-01T03:24:32.640Z,3.83
2017-10-01T03:27:00.111Z,3.37
2017-10-01T03:29:26.383Z,3.60
2017-10-01T03:31:52.749Z,3.77
2017-10-01T03:34:19.753Z,3.67
2017-10-01T03:36:46.050Z,3.30
2017-10-01T03:39:12.790Z,3.60
2017-10-01T03:41:39.089Z,3.47
2017-10-01T03:44:05.445Z,3.23
2017-10-01T03:46:31.768Z,3.17
2017-10-01T03:48:58.780Z,3.63
2017-10-01T03:51:25.111Z,3.50
2017-10-01T03:53:51.519Z,3.37
2017-10-01T03:56:17.842Z,2.93
2017-10-01T03:58:44.190Z,3.60
2017-10-01T04:01:10.498Z,3.17
2017-10-01T04:03:37.224Z,3.80
2017-10-01T04:06:03.464Z,3.37
2017-10-01T04:08:29.702Z,3.37
2017-10-01T04:10:55.945Z,3.37
2017-10-01T04:13:22.165Z,4.10
2017-10-01T04:15:48.458Z,3.80
2017-10-01T04:18:15.548Z,4.70
2017-10-01T04:20:41.809Z,4.40
2017-10-01T04:23:08.056Z,4.33
2017-10-01T04:25:34.327Z,4.47
2017-10-01T04:28:01.046Z,4.73
2017-10-01T04:30:27.329Z,5.03
2017-10-01T04:32:53.601Z,5.27
2017-10-01T04:35:19.913Z,4.90
2017-10-01T04:37:46.949Z,5.27
2017-10-01T04:40:13.312Z,5.03
2017-10-01T04:42:39.577Z,5.40
2017-10-01T04:45:05.854Z,5.77
2017-10-01T04:47:32.858Z,5.50
2017-10-01T04:49:59.178Z,5.30
2017-10-01T04:52:25.475Z,6.77
2017-10-01T04:54:51.758Z,6.07
2017-10-01T04:57:18.022Z,6.50
2017-10-01T04:59:45.109Z,6.73
2017-10-01T05:02:11.435Z,6.70
2017-10-01T05:04:41.652Z,6.73
2017-10-01T05:07:07.949Z,6.60
2017-10-01T05:09:34.962Z,7.30
2017-10-01T05:12:02.348Z,7.30
2017-10-01T05:14:28.590Z,8.17
2017-10-01T05:16:55.638Z,7.80
2017-10-01T05:19:22.006Z,8.50
2017-10-01T05:21:48.349Z,7.87
2017-10-01T05:24:14.606Z,8.70
2017-10-01T05:26:40.869Z,8.50
2017-10-01T05:29:07.164Z,8.50
2017-10-01T05:31:33.473Z,8.10
2017-10-01T05:33:59.794Z,9.30
2017-10-01T05:36:26.165Z,9.30
2017-10-01T05:38:53.505Z,9.47
2017-10-01T05:41:19.759Z,9.37
2017-10-01T05:43:46.726Z,10.03
2017-10-01T05:46:13.371Z,9.50
2017-10-01T05:48:39.718Z,9.90
2017-10-01T05:51:05.983Z,9.93
2017-10-01T05:53:32.295Z,10.13
2017-10-01T05:55:58.521Z,11.93
2017-10-01T05:58:24.803Z,10.80
2017-10-01T06:00:52.180Z,11.17
2017-10-01T06:03:18.482Z,10.30
2017-10-01T06:05:45.460Z,12.53
2017-10-01T06:08:11.771Z,11.27
2017-10-01T06:10:38.135Z,11.30
2017-10-01T06:13:04.437Z,11.13
2017-10-01T06:15:31.132Z,12.23
2017-10-01T06:17:57.339Z,12.33
2017-10-01T06:20:23.578Z,12.30
2017-10-01T06:22:50.230Z,11.40
2017-10-01T06:25:16.511Z,13.03
2017-10-01T06:27:42.735Z,12.30
2017-10-01T06:30:09.063Z,13.30
2017-10-01T06:32:35.384Z,14.13
2017-10-01T06:35:01.631Z,12.83
2017-10-01T06:37:27.943Z,14.13
2017-10-01T06:39:54.197Z,13.70
2017-10-01T06:42:20.514Z,13.60
2017-10-01T06:44:46.761Z,14.30
2017-10-01T06:47:13.059Z,14.90
2017-10-01T06:49:40.101Z,15.77
2017-10-01T06:52:06.390Z,15.23
2017-10-01T06:54:32.652Z,15.83
2017-10-01T06:56:59.673Z,14.23
2017-10-01T06:59:26.741Z,15.37
2017-10-01T07:01:53.790Z,15.33
2017-10-01T07:04:20.798Z,15.53
2017-10-01T07:06:47.100Z,16.87
2017-10-01T07:09:13.367Z,17.30
2017-10-01T07:11:39.642Z,18.10
2017-10-01T07:14:06.293Z,17.40
2017-10-01T07:16:32.571Z,17.27
2017-10-01T07:18:58.873Z,18.67
2017-10-01T07:21:25.491Z,17.77
2017-10-01T07:23:51.887Z,18.87
2017-10-01T07:26:18.114Z,17.20
2017-10-01T07:28:44.367Z,18.57
2017-10-01T07:31:11.358Z,19.23
2017-10-01T07:33:37.582Z,18.87
2017-10-01T07:36:03.839Z,19.50
2017-10-01T07:38:30.061Z,18.20
2017-10-01T07:40:56.372Z,19.17
2017-10-01T07:43:22.603Z,19.30
2017-10-01T07:45:48.930Z,17.77
2017-10-01T07:48:15.244Z,17.30
2017-10-01T07:50:41.588Z,18.60
2017-10-01T07:53:07.852Z,19.50
2017-10-01T07:55:34.098Z,19.27
2017-10-01T07:58:01.469Z,19.30
2017-10-01T08:00:27.793Z,19.80
2017-10-01T08:02:54.044Z,19.07
2017-10-01T08:05:20.747Z,18.43
2017-10-01T08:07:46.967Z,19.73
2017-10-01T08:10:13.239Z,18.20
2017-10-01T08:12:39.487Z,17.67
2017-10-01T08:15:05.730Z,17.10
2017-10-01T08:17:32.025Z,15.50
2017-10-01T08:19:58.329Z,15.57
2017-10-01T08:22:25.382Z,16.47
2017-10-01T08:24:53.083Z,14.30
2017-10-01T08:27:19.417Z,15.67
2017-10-01T08:29:45.718Z,15.70
2017-10-01T08:32:12.004Z,14.73
2017-10-01T08:34:38.385Z,13.43
2017-10-01T08:37:04.671Z,13.50
2017-10-01T08:39:30.903Z,15.13
2017-10-01T08:41:57.540Z,15.00
2017-10-01T08:44:23.827Z,14.47
2017-10-01T08:46:50.056Z,13.37
2017-10-01T08:49:23.236Z,13.77
2017-10-01T08:51:49.514Z,13.50
2017-10-01T08:54:15.794Z,13.60
2017-10-01T08:56:42.494Z,12.60
2017-10-01T08:59:08.730Z,12.70
2017-10-01T09:01:36.373Z,11.40
2017-10-01T09:04:03.010Z,12.50
2017-10-01T09:06:29.281Z,12.67
2017-10-01T09:08:55.528Z,12.73
2017-10-01T09:11:21.759Z,12.00
2017-10-01T09:13:48.113Z,14.33
2017-10-01T09:16:14.428Z,12.60
2017-10-01T09:18:40.678Z,14.10
2017-10-01T09:21:06.927Z,13.47
2017-10-01T09:23:33.216Z,13.40
2017-10-01T09:25:59.843Z,12.97
2017-10-01T09:28:26.063Z,13.73
2017-10-01T09:30:52.372Z,15.17
2017-10-01T09:33:19.476Z,13.60
2017-10-01T09:35:45.774Z,13.70
2017-10-01T09:38:11.998Z,13.83
2017-10-01T09:40:38.282Z,13.80
2017-10-01T09:43:04.611Z,14.10
2017-10-01T09:45:30.893Z,13.30
2017-10-01T09:47:57.201Z,15.40
2017-10-01T09:50:24.246Z,15.40
2017-10-01T09:52:51.238Z,13.70
2017-10-01T09:55:17.656Z,14.87
2017-10-01T09:57:43.895Z,14.20
2017-10-01T10:00:10.112Z,14.97
2017-10-01T10:02:36.853Z,14.37
2017-10-01T10:05:03.156Z,14.50
2017-10-01T10:07:30.147Z,14.40
2017-10-01T10:09:56.456Z,14.30
2017-10-01T10:12:22.738Z,16.40
2017-10-01T10:14:49.025Z,15.43
2017-10-01T10:17:15.349Z,15.17
2017-10-01T10:19:41.637Z,14.00
2017-10-01T10:22:08.648Z,13.90
2017-10-01T10:24:34.963Z,13.40
2017-10-01T10:27:01.217Z,14.07
2017-10-01T10:29:27.492Z,13.47
2017-10-01T10:31:53.804Z,12.10
2017-10-01T10:34:20.827Z,12.53
2017-10-01T10:36:47.063Z,12.40
2017-10-01T10:39:13.337Z,12.50
2017-10-01T10:41:39.641Z,11.30
2017-10-01T10:44:06.647Z,11.80
2017-10-01T10:46:33.257Z,11.20
2017-10-01T10:48:59.514Z,10.90
2017-10-01T10:51:25.813Z,10.57
2017-10-01T10:53:52.091Z,10.00
2017-10-01T10:56:18.371Z,9.57
2017-10-01T10:58:44.627Z,10.47
2017-10-01T11:01:10.938Z,8.27
2017-10-01T11:03:37.181Z,9.10
2017-10-01T11:06:03.478Z,8.13
2017-10-01T11:08:29.778Z,8.90
2017-10-01T11:10:56.054Z,9.30
2017-10-01T11:13:22.319Z,8.40
2017-10-01T11:15:48.975Z,8.27
2017-10-01T11:18:15.273Z,8.80
2017-10-01T11:20:41.597Z,8.50
2017-10-01T11:23:07.890Z,7.93
2017-10-01T11:25:34.935Z,8.40
2017-10-01T11:28:02.013Z,11.20
2017-10-01T11:30:28.333Z,11.10
2017-10-01T11:32:54.937Z,7.53
2017-10-01T11:35:21.202Z,7.70
2017-10-01T11:37:47.458Z,8.37
2017-10-01T11:40:13.731Z,7.77
2017-10-01T11:42:39.986Z,7.73
2017-10-01T11:45:06.315Z,7.93
2017-10-01T11:47:32.555Z,7.77
2017-10-01T11:49:58.827Z,7.07
2017-10-01T11:52:25.146Z,6.53
2017-10-01T11:54:51.417Z,6.40
2017-10-01T11:57:18.440Z,6.73
2017-10-01T11:59:44.695Z,6.13
2017-10-01T12:02:11.711Z,6.30
2017-10-01T12:04:38.440Z,6.53
2017-10-01T12:07:04.705Z,6.17
2017-10-01T12:09:31.737Z,6.00
2017-10-01T12:11:58.020Z,6.80
2017-10-01T12:14:24.251Z,6.83
2017-10-01T12:16:50.542Z,5.93
2017-10-01T12:19:17.564Z,5.70
2017-10-01T12:21:43.772Z,6.17
2017-10-01T12:24:10.025Z,6.60
2017-10-01T12:26:36.330Z,6.73
2017-10-01T12:29:02.615Z,5.83
2017-10-01T12:31:29.607Z,6.33
2017-10-01T12:33:55.978Z,5.47
2017-10-01T12:36:23.021Z,5.57
2017-10-01T12:38:50.012Z,4.63
2017-10-01T12:41:16.289Z,5.47
2017-10-01T12:43:42.546Z,5.40
2017-10-01T12:46:09.566Z,5.40
2017-10-01T12:48:36.641Z,5.67
2017-10-01T12:51:02.942Z,5.27
2017-10-01T12:53:29.215Z,5.87
2017-10-01T12:55:55.507Z,5.70
2017-10-01T12:58:21.765Z,5.10
2017-10-01T13:00:48.105Z,4.70
2017-10-01T13:03:14.389Z,4.40
2017-10-01T13:05:40.668Z,5.40
2017-10-01T13:08:06.927Z,5.23
2017-10-01T13:10:33.184Z,5.30
2017-10-01T13:12:59.500Z,5.53
2017-10-01T13:15:25.778Z,5.47
2017-10-01T13:17:52.038Z,5.90
2017-10-01T13:20:18.251Z,5.73
2017-10-01T13:22:44.499Z,7.10
2017-10-01T13:25:10.793Z,6.00
2017-10-01T13:27:37.091Z,6.07
2017-10-01T13:30:03.393Z,5.70
2017-10-01T13:32:30.634Z,6.60
2017-10-01T13:34:56.879Z,5.83
2017-10-01T13:37:23.111Z,5.83
2017-10-01T13:39:49.334Z,5.30
2017-10-01T13:42:15.591Z,5.93
2017-10-01T13:44:42.669Z,5.30
2017-10-01T13:47:09.018Z,4.60
2017-10-01T13:49:35.306Z,5.47
2017-10-01T13:52:01.564Z,6.80
2017-10-01T13:54:27.835Z,6.90
2017-10-01T13:56:54.087Z,7.60
2017-10-01T13:59:20.383Z,6.50
2017-10-01T14:01:46.680Z,6.00
2017-10-01T14:04:12.971Z,5.60
2017-10-01T14:06:39.238Z,6.03
2017-10-01T14:09:05.455Z,5.60
2017-10-01T14:11:32.487Z,6.03
2017-10-01T14:13:59.545Z,5.37
2017-10-01T14:16:26.559Z,4.60
2017-10-01T14:18:52.769Z,3.77
2017-10-01T14:21:19.009Z,4.80
2017-10-01T14:23:45.334Z,4.37
2017-10-01T14:26:11.631Z,4.13
2017-10-01T14:28:37.878Z,4.00
2017-10-01T14:31:10.301Z,4.30
2017-10-01T14:33:37.255Z,3.63
2017-10-01T14:36:04.266Z,3.63
2017-10-01T14:38:30.550Z,4.37
2017-10-01T14:40:56.876Z,4.27
2017-10-01T14:43:23.138Z,3.70
2017-10-01T14:45:49.409Z,4.40
2017-10-01T14:48:16.435Z,4.43
2017-10-01T14:50:42.693Z,4.43
2017-10-01T14:53:09.699Z,5.27
2017-10-01T14:55:35.972Z,5.63
2017-10-01T14:58:02.979Z,4.80
2017-10-01T15:00:29.253Z,5.00
2017-10-01T15:02:56.231Z,4.67
2017-10-01T15:05:22.482Z,4.50
2017-10-01T15:07:48.746Z,4.43
2017-10-01T15:10:15.065Z,4.30
2017-10-01T15:12:41.401Z,4.53
2017-10-01T15:15:08.410Z,4.13
2017-10-01T15:17:34.678Z,3.53
2017-10-01T15:20:01.747Z,3.47
2017-10-01T15:22:28.758Z,4.00
2017-10-01T15:24:54.990Z,3.10
2017-10-01T15:27:21.239Z,4.10
2017-10-01T15:29:48.234Z,3.90
2017-10-01T15:32:14.487Z,4.07
2017-10-01T15:34:40.981Z,3.83
2017-10-01T15:37:07.248Z,3.50
2017-10-01T15:39:33.512Z,3.63
2017-10-01T15:42:00.540Z,3.20
2017-10-01T15:44:27.544Z,2.70
2017-10-01T15:46:53.815Z,3.60
2017-10-01T15:49:20.083Z,3.27
2017-10-01T15:51:46.346Z,3.10
2017-10-01T15:54:12.611Z,3.60
2017-10-01T15:56:38.929Z,4.90
2017-10-01T15:59:05.163Z,3.67
2017-10-01T16:01:31.434Z,3.53
2017-10-01T16:03:57.709Z,3.23
2017-10-01T16:06:23.937Z,4.10
2017-10-01T16:08:50.182Z,5.93
2017-10-01T16:11:16.470Z,4.67
2017-10-01T16:13:42.714Z,5.00
2017-10-01T16:16:09.003Z,4.73
2017-10-01T16:18:35.322Z,3.70
2017-10-01T16:21:02.366Z,3.63
2017-10-01T16:23:29.374Z,4.20
2017-10-01T16:25:55.682Z,3.77
2017-10-01T16:28:21.996Z,5.03
2017-10-01T16:30:48.324Z,5.03
2017-10-01T16:33:14.577Z,5.10
2017-10-01T16:35:40.804Z,4.80
2017-10-01T16:38:07.017Z,4.40
2017-10-01T16:40:33.250Z,4.83
2017-10-01T16:42:59.569Z,5.20
2017-10-01T16:45:25.921Z,6.17
2017-10-01T16:47:52.254Z,5.40
2017-10-01T16:50:18.503Z,5.80
2017-10-01T16:52:44.777Z,6.63
2017-10-01T16:55:11.771Z,5.87
2017-10-01T16:57:38.017Z,6.60
2017-10-01T17:00:04.282Z,7.27
2017-10-01T17:02:31.293Z,6.60
2017-10-01T17:04:57.619Z,6.90
2017-10-01T17:07:23.904Z,6.97
2017-10-01T17:09:50.143Z,8.03
2017-10-01T17:12:16.420Z,7.77
2017-10-01T17:14:42.701Z,9.00
2017-10-01T17:17:08.979Z,9.83
2017-10-01T17:19:35.250Z,9.90
2017-10-01T17:22:01.575Z,8.47
2017-10-01T17:24:27.844Z,7.40
2017-10-01T17:26:54.147Z,6.57
2017-10-01T17:29:20.497Z,6.13
2017-10-01T17:31:46.821Z,6.80
2017-10-01T17:34:13.142Z,7.23
2017-10-01T17:36:39.413Z,6.67
2017-10-01T17:39:05.681Z,7.83
2017-10-01T17:41:32.660Z,7.10
2017-10-01T17:43:58.931Z,7.90
2017-10-01T17:46:26.024Z,7.87
2017-10-01T17:48:52.289Z,7.67
2017-10-01T17:51:18.563Z,7.33
2017-10-01T17:53:44.917Z,8.07
2017-10-01T17:56:11.230Z,8.73
2017-10-01T17:58:37.549Z,9.40
2017-10-01T18:01:03.823Z,10.13
2017-10-01T18:03:30.164Z,9.80
2017-10-01T18:05:56.474Z,9.20
2017-10-01T18:08:22.943Z,9.73
2017-10-01T18:10:50.456Z,9.70
2017-10-01T20:14:51.602Z,11.40
2017-10-01T20:17:18.609Z,10.93
2017-10-01T20:19:45.685Z,11.77
2017-10-01T20:22:12.663Z,11.90
2017-10-01T20:24:38.935Z,12.10
2017-10-01T20:27:05.925Z,12.50
2017-10-01T20:29:32.232Z,10.17
2017-10-01T20:31:59.324Z,11.23
2017-10-01T20:34:25.571Z,11.30
2017-10-01T20:36:51.890Z,11.37
2017-10-01T20:39:18.166Z,12.37
2017-10-01T20:41:45.185Z,11.07
2017-10-01T20:44:11.514Z,11.60
2017-10-01T20:46:37.727Z,11.47
2017-10-01T20:49:04.022Z,10.53
2017-10-01T20:51:30.331Z,10.93
2017-10-01T20:53:57.406Z,11.23
2017-10-01T20:56:23.717Z,11.13
2017-10-01T20:58:50.753Z,11.80
2017-10-01T21:01:17.045Z,10.67
2017-10-01T21:03:43.275Z,11.30
2017-10-01T21:06:09.602Z,11.23
2017-10-01T21:08:35.926Z,10.47
2017-10-01T21:11:02.280Z,10.20
2017-10-01T21:13:28.629Z,9.80
2017-10-01T21:15:54.909Z,9.90
2017-10-01T21:18:21.191Z,10.13
2017-10-01T21:20:47.506Z,9.30
2017-10-01T21:23:13.821Z,9.77
2017-10-01T21:25:40.040Z,9.60
2017-10-01T21:28:06.299Z,10.30
2017-10-01T21:30:32.587Z,10.23
2017-10-01T21:32:58.877Z,9.43
2017-10-01T21:35:25.917Z,10.60
2017-10-01T21:37:52.295Z,11.50
2017-10-01T21:40:18.561Z,10.33
2017-10-01T21:42:45.617Z,9.70
2017-10-01T21:45:11.878Z,10.10
2017-10-01T21:47:38.873Z,9.57
2017-10-01T21:50:05.149Z,9.47
2017-10-01T21:52:32.175Z,8.67
2017-10-01T21:54:58.430Z,9.40
2017-10-01T21:57:25.469Z,9.97
2017-10-01T21:59:52.419Z,9.33
2017-10-01T22:02:19.500Z,9.47
2017-10-01T22:04:45.784Z,11.03
2017-10-01T22:07:12.093Z,10.00
2017-10-01T22:09:39.088Z,9.23
2017-10-01T22:12:05.362Z,10.30
2017-10-01T22:14:31.623Z,10.43
2017-10-01T22:16:57.890Z,9.03
2017-10-01T22:19:24.188Z,8.70
2017-10-01T22:21:51.166Z,9.27
2017-10-01T22:24:17.509Z,9.13
2017-10-01T22:26:43.793Z,10.43
2017-10-01T22:29:10.852Z,9.03
2017-10-01T22:31:37.834Z,10.03
2017-10-01T22:34:04.083Z,9.73
2017-10-01T22:36:30.294Z,9.90
2017-10-01T22:38:56.582Z,10.87
2017-10-01T22:41:22.893Z,9.70
2017-10-01T22:43:49.176Z,9.03
2017-10-01T22:46:15.496Z,9.57
2017-10-01T22:48:41.799Z,9.70
2017-10-01T22:51:08.810Z,8.90
2017-10-01T22:53:35.022Z,9.97
2017-10-01T22:56:01.742Z,9.70
2017-10-01T22:58:27.990Z,10.40
2017-10-01T23:00:54.223Z,10.20
2017-10-01T23:03:20.504Z,10.23
2017-10-01T23:05:47.489Z,9.47
2017-10-01T23:08:13.781Z,9.67
2017-10-01T23:10:40.873Z,10.67
2017-10-01T23:13:07.118Z,9.40
2017-10-01T23:15:33.446Z,9.87
2017-10-01T23:17:59.713Z,9.40
2017-10-01T23:20:26.724Z,9.50
2017-10-01T23:22:53.033Z,9.70
2017-10-01T23:25:19.294Z,9.50
2017-10-01T23:27:45.529Z,9.37
2017-10-01T23:30:11.792Z,8.63
2017-10-01T23:32:38.010Z,9.83
2017-10-01T23:35:04.978Z,9.40
2017-10-01T23:37:31.223Z,10.30
2017-10-01T23:39:57.520Z,9.70
2017-10-01T23:42:24.524Z,9.97
2017-10-01T23:44:50.771Z,9.03
2017-10-01T23:47:17.062Z,9.30
2017-10-01T23:49:43.325Z,9.57
2017-10-01T23:52:09.570Z,9.90
2017-10-01T23:54:36.618Z,10.60
